sensor_id;sensor_type;location;lat;lon;timestamp;pressure;altitude;pressure_sealevel;temperature;humidity
40075;BME280;26529;51.530;11.754;2022-12-07T00:01:44;99920.97;;;21.01;44.60
40075;BME280;26529;51.530;11.754;2022-12-07T00:04:12;99908.63;;;21.00;44.41
40075;BME280;26529;51.530;11.754;2022-12-07T00:06:43;99915.91;;;20.98;44.53
40075;BME280;26529;51.530;11.754;2022-12-07T00:09:12;99910.78;;;20.95;44.60
40075;BME280;26529;51.530;11.754;2022-12-07T00:11:38;99905.72;;;20.92;44.69
40075;BME280;26529;51.530;11.754;2022-12-07T00:14:06;99907.16;;;20.96;44.62
40075;BME280;26529;51.530;11.754;2022-12-07T00:16:34;99896.50;;;20.96;44.52
40075;BME280;26529;51.530;11.754;2022-12-07T00:19:00;99900.38;;;20.92;44.61
40075;BME280;26529;51.530;11.754;2022-12-07T00:21:31;99895.06;;;20.92;44.67
40075;BME280;26529;51.530;11.754;2022-12-07T00:23:57;99898.69;;;20.91;44.57
40075;BME280;26529;51.530;11.754;2022-12-07T00:26:27;99902.31;;;20.90;44.53
40075;BME280;26529;51.530;11.754;2022-12-07T00:28:56;99889.00;;;20.90;44.66
40075;BME280;26529;51.530;11.754;2022-12-07T00:31:24;99898.91;;;20.87;44.38
40075;BME280;26529;51.530;11.754;2022-12-07T00:33:50;99890.19;;;20.85;44.77
40075;BME280;26529;51.530;11.754;2022-12-07T00:36:18;99885.84;;;20.84;44.71
40075;BME280;26529;51.530;11.754;2022-12-07T00:38:44;99879.72;;;20.82;44.73
40075;BME280;26529;51.530;11.754;2022-12-07T00:41:15;99883.34;;;20.81;44.70
40075;BME280;26529;51.530;11.754;2022-12-07T00:43:42;99865.69;;;20.80;44.69
40075;BME280;26529;51.530;11.754;2022-12-07T00:46:08;99871.97;;;20.79;44.65
40075;BME280;26529;51.530;11.754;2022-12-07T00:48:34;99865.94;;;20.77;44.79
40075;BME280;26529;51.530;11.754;2022-12-07T00:51:00;99869.31;;;20.79;44.78
40075;BME280;26529;51.530;11.754;2022-12-07T00:53:27;99873.16;;;20.75;44.72
40075;BME280;26529;51.530;11.754;2022-12-07T00:55:53;99865.44;;;20.72;44.98
40075;BME280;26529;51.530;11.754;2022-12-07T00:58:19;99865.44;;;20.72;44.95
40075;BME280;26529;51.530;11.754;2022-12-07T01:00:45;99871.72;;;20.71;44.88
40075;BME280;26529;51.530;11.754;2022-12-07T01:03:12;99869.19;;;20.69;44.79
40075;BME280;26529;51.530;11.754;2022-12-07T01:05:39;99866.41;;;20.71;44.79
40075;BME280;26529;51.530;11.754;2022-12-07T01:08:06;99871.13;;;20.67;44.84
40075;BME280;26529;51.530;11.754;2022-12-07T01:10:32;99862.25;;;20.67;44.78
40075;BME280;26529;51.530;11.754;2022-12-07T01:12:58;99858.00;;;20.64;44.89
40075;BME280;26529;51.530;11.754;2022-12-07T01:15:25;99859.84;;;20.64;44.90
40075;BME280;26529;51.530;11.754;2022-12-07T01:17:51;99867.84;;;20.64;44.75
40075;BME280;26529;51.530;11.754;2022-12-07T01:20:17;99866.16;;;20.63;44.84
40075;BME280;26529;51.530;11.754;2022-12-07T01:22:43;99850.16;;;20.63;44.83
40075;BME280;26529;51.530;11.754;2022-12-07T01:25:10;99857.41;;;20.60;44.88
40075;BME280;26529;51.530;11.754;2022-12-07T01:27:37;99854.75;;;20.60;44.90
40075;BME280;26529;51.530;11.754;2022-12-07T01:30:04;99852.81;;;20.63;44.70
40075;BME280;26529;51.530;11.754;2022-12-07T01:32:30;99843.25;;;20.60;44.91
40075;BME280;26529;51.530;11.754;2022-12-07T01:34:56;99842.66;;;20.56;44.90
40075;BME280;26529;51.530;11.754;2022-12-07T01:37:22;99839.84;;;20.58;44.91
40075;BME280;26529;51.530;11.754;2022-12-07T01:39:51;99849.78;;;20.56;44.90
40075;BME280;26529;51.530;11.754;2022-12-07T01:42:17;99844.56;;;20.54;45.02
40075;BME280;26529;51.530;11.754;2022-12-07T01:47:50;99850.63;;;20.56;44.93
40075;BME280;26529;51.530;11.754;2022-12-07T01:50:17;99851.56;;;20.55;44.84
40075;BME280;26529;51.530;11.754;2022-12-07T01:52:43;99847.09;;;20.56;44.84
40075;BME280;26529;51.530;11.754;2022-12-07T01:55:12;99846.25;;;20.55;45.04
40075;BME280;26529;51.530;11.754;2022-12-07T01:57:43;99838.50;;;20.52;44.86
40075;BME280;26529;51.530;11.754;2022-12-07T02:00:11;99837.53;;;20.53;44.77
40075;BME280;26529;51.530;11.754;2022-12-07T02:02:44;99831.38;;;20.53;45.03
40075;BME280;26529;51.530;11.754;2022-12-07T02:05:11;99829.91;;;20.49;44.91
40075;BME280;26529;51.530;11.754;2022-12-07T02:07:38;99825.53;;;20.47;44.95
40075;BME280;26529;51.530;11.754;2022-12-07T02:10:23;99825.66;;;20.46;44.94
40075;BME280;26529;51.530;11.754;2022-12-07T02:12:56;99823.97;;;20.45;44.96
40075;BME280;26529;51.530;11.754;2022-12-07T02:16:14;99813.53;;;20.42;45.00
40075;BME280;26529;51.530;11.754;2022-12-07T02:32:03;99803.13;;;20.39;44.99
40075;BME280;26529;51.530;11.754;2022-12-07T02:34:47;99807.59;;;20.38;45.02
40075;BME280;26529;51.530;11.754;2022-12-07T02:37:25;99798.03;;;20.36;44.85
40075;BME280;26529;51.530;11.754;2022-12-07T02:39:59;99803.13;;;20.39;45.09
40075;BME280;26529;51.530;11.754;2022-12-07T02:42:36;99791.00;;;20.34;45.04
40075;BME280;26529;51.530;11.754;2022-12-07T02:45:05;99791.88;;;20.35;44.95
40075;BME280;26529;51.530;11.754;2022-12-07T02:47:33;99792.94;;;20.32;45.29
40075;BME280;26529;51.530;11.754;2022-12-07T02:49:59;99785.06;;;20.31;45.11
40075;BME280;26529;51.530;11.754;2022-12-07T02:52:27;99782.28;;;20.32;45.12
40075;BME280;26529;51.530;11.754;2022-12-07T02:54:53;99780.59;;;20.31;45.15
40075;BME280;26529;51.530;11.754;2022-12-07T03:02:43;99772.72;;;20.30;45.25
40075;BME280;26529;51.530;11.754;2022-12-07T03:13:04;99735.94;;;20.35;45.04
40075;BME280;26529;51.530;11.754;2022-12-07T03:15:35;99743.06;;;20.34;45.01
40075;BME280;26529;51.530;11.754;2022-12-07T03:18:04;99745.03;;;20.32;44.95
40075;BME280;26529;51.530;11.754;2022-12-07T03:20:32;99741.38;;;20.33;45.28
40075;BME280;26529;51.530;11.754;2022-12-07T03:23:03;99747.94;;;20.29;45.16
40075;BME280;26529;51.530;11.754;2022-12-07T03:25:29;99749.84;;;20.27;45.17
40075;BME280;26529;51.530;11.754;2022-12-07T03:27:58;99741.84;;;20.27;45.00
40075;BME280;26529;51.530;11.754;2022-12-07T03:30:33;99745.50;;;20.26;45.10
40075;BME280;26529;51.530;11.754;2022-12-07T03:33:06;99746.69;;;20.22;45.12
40075;BME280;26529;51.530;11.754;2022-12-07T03:35:40;99747.66;;;20.21;45.13
40075;BME280;26529;51.530;11.754;2022-12-07T03:38:13;99744.00;;;20.22;45.13
40075;BME280;26529;51.530;11.754;2022-12-07T03:40:48;99738.94;;;20.19;45.17
40075;BME280;26529;51.530;11.754;2022-12-07T03:43:17;99739.06;;;20.17;45.28
40075;BME280;26529;51.530;11.754;2022-12-07T03:45:52;99732.75;;;20.18;45.28
40075;BME280;26529;51.530;11.754;2022-12-07T03:48:31;99726.72;;;20.16;45.29
40075;BME280;26529;51.530;11.754;2022-12-07T03:51:19;99735.56;;;20.17;45.19
40075;BME280;26529;51.530;11.754;2022-12-07T03:54:02;99719.69;;;20.15;45.16
40075;BME280;26529;51.530;11.754;2022-12-07T03:56:33;99721.50;;;20.15;45.33
40075;BME280;26529;51.530;11.754;2022-12-07T03:58:59;99732.16;;;20.15;45.25
40075;BME280;26529;51.530;11.754;2022-12-07T04:01:25;99725.13;;;20.14;45.17
40075;BME280;26529;51.530;11.754;2022-12-07T04:03:51;99724.31;;;20.13;45.27
40075;BME280;26529;51.530;11.754;2022-12-07T04:06:16;99725.38;;;20.11;45.21
40075;BME280;26529;51.530;11.754;2022-12-07T04:08:42;99723.69;;;20.10;45.20
40075;BME280;26529;51.530;11.754;2022-12-07T04:11:08;99727.06;;;20.12;45.33
40075;BME280;26529;51.530;11.754;2022-12-07T04:13:34;99722.63;;;20.12;45.31
40075;BME280;26529;51.530;11.754;2022-12-07T04:16:19;99729.00;;;20.10;45.26
40075;BME280;26529;51.530;11.754;2022-12-07T04:18:45;99730.91;;;20.08;45.17
40075;BME280;26529;51.530;11.754;2022-12-07T04:21:11;99726.47;;;20.08;45.28
40075;BME280;26529;51.530;11.754;2022-12-07T04:23:36;99718.38;;;20.10;45.28
40075;BME280;26529;51.530;11.754;2022-12-07T04:26:02;99713.97;;;20.09;45.30
40075;BME280;26529;51.530;11.754;2022-12-07T04:28:28;99707.72;;;20.10;45.18
40075;BME280;26529;51.530;11.754;2022-12-07T04:30:53;99719.19;;;20.10;45.27
40075;BME280;26529;51.530;11.754;2022-12-07T04:33:19;99719.09;;;20.12;45.26
40075;BME280;26529;51.530;11.754;2022-12-07T04:35:44;99712.69;;;20.14;45.11
40075;BME280;26529;51.530;11.754;2022-12-07T04:38:10;99715.47;;;20.13;45.13
40075;BME280;26529;51.530;11.754;2022-12-07T04:40:35;99713.03;;;20.10;45.32
40075;BME280;26529;51.530;11.754;2022-12-07T04:43:01;99714.94;;;20.08;45.29
40075;BME280;26529;51.530;11.754;2022-12-07T04:45:26;99707.84;;;20.08;45.00
40075;BME280;26529;51.530;11.754;2022-12-07T04:47:52;99706.25;;;20.05;45.09
40075;BME280;26529;51.530;11.754;2022-12-07T04:50:18;99702.63;;;20.06;45.11
40075;BME280;26529;51.530;11.754;2022-12-07T04:52:43;99696.56;;;20.04;45.21
40075;BME280;26529;51.530;11.754;2022-12-07T04:55:09;99693.31;;;20.01;45.33
40075;BME280;26529;51.530;11.754;2022-12-07T04:57:34;99686.91;;;20.03;45.21
40075;BME280;26529;51.530;11.754;2022-12-07T05:00:00;99689.66;;;20.02;45.42
40075;BME280;26529;51.530;11.754;2022-12-07T05:02:25;99690.53;;;20.02;45.20
40075;BME280;26529;51.530;11.754;2022-12-07T05:04:51;99694.13;;;20.01;45.18
40075;BME280;26529;51.530;11.754;2022-12-07T05:07:16;99694.13;;;20.01;45.44
40075;BME280;26529;51.530;11.754;2022-12-07T05:09:42;99697.75;;;20.00;45.43
40075;BME280;26529;51.530;11.754;2022-12-07T05:12:08;99699.44;;;20.01;45.19
40075;BME280;26529;51.530;11.754;2022-12-07T05:14:33;99700.41;;;20.00;45.33
40075;BME280;26529;51.530;11.754;2022-12-07T05:16:59;99710.09;;;20.01;45.37
40075;BME280;26529;51.530;11.754;2022-12-07T05:19:24;99706.72;;;19.99;45.48
40075;BME280;26529;51.530;11.754;2022-12-07T05:21:51;99710.34;;;19.98;45.35
40075;BME280;26529;51.530;11.754;2022-12-07T05:24:17;99706.97;;;19.96;45.26
40075;BME280;26529;51.530;11.754;2022-12-07T05:26:43;99710.56;;;19.95;45.41
40075;BME280;26529;51.530;11.754;2022-12-07T05:29:14;99712.38;;;19.95;45.53
40075;BME280;26529;51.530;11.754;2022-12-07T05:31:40;99719.28;;;19.97;45.27
40075;BME280;26529;51.530;11.754;2022-12-07T05:34:06;99714.09;;;19.96;45.26
40075;BME280;26529;51.530;11.754;2022-12-07T05:36:31;99715.13;;;19.93;45.45
40075;BME280;26529;51.530;11.754;2022-12-07T05:38:57;99712.28;;;19.96;45.40
40075;BME280;26529;51.530;11.754;2022-12-07T05:41:23;99713.34;;;19.93;45.44
40075;BME280;26529;51.530;11.754;2022-12-07T05:44:07;99714.16;;;19.94;45.37
40075;BME280;26529;51.530;11.754;2022-12-07T05:46:33;99714.94;;;19.96;45.54
40075;BME280;26529;51.530;11.754;2022-12-07T05:49:00;99697.03;;;19.98;45.34
40075;BME280;26529;51.530;11.754;2022-12-07T05:51:25;99703.22;;;19.99;45.25
40075;BME280;26529;51.530;11.754;2022-12-07T05:53:51;99698.00;;;19.97;45.27
40075;BME280;26529;51.530;11.754;2022-12-07T05:56:17;99705.03;;;19.98;45.22
40075;BME280;26529;51.530;11.754;2022-12-07T05:58:42;99705.25;;;19.95;45.28
40075;BME280;26529;51.530;11.754;2022-12-07T06:01:27;99709.69;;;19.95;45.42
40075;BME280;26529;51.530;11.754;2022-12-07T06:03:52;99708.84;;;19.94;45.24
40075;BME280;26529;51.530;11.754;2022-12-07T06:06:18;99708.22;;;19.90;45.57
40075;BME280;26529;51.530;11.754;2022-12-07T06:08:44;99712.47;;;19.93;45.50
40075;BME280;26529;51.530;11.754;2022-12-07T06:11:09;99708.13;;;19.92;45.36
40075;BME280;26529;51.530;11.754;2022-12-07T06:13:53;99697.38;;;19.93;45.42
40075;BME280;26529;51.530;11.754;2022-12-07T06:16:19;99703.53;;;19.94;45.44
40075;BME280;26529;51.530;11.754;2022-12-07T06:18:44;99704.50;;;19.93;45.11
40075;BME280;26529;51.530;11.754;2022-12-07T06:21:10;99709.09;;;19.91;45.30
40075;BME280;26529;51.530;11.754;2022-12-07T06:23:35;99702.06;;;19.90;45.40
40075;BME280;26529;51.530;11.754;2022-12-07T06:26:01;99706.66;;;19.88;45.48
40075;BME280;26529;51.530;11.754;2022-12-07T06:28:27;99715.59;;;19.87;45.54
40075;BME280;26529;51.530;11.754;2022-12-07T06:30:59;99707.59;;;19.87;45.35
40075;BME280;26529;51.530;11.754;2022-12-07T06:33:26;99704.22;;;19.85;45.36
40075;BME280;26529;51.530;11.754;2022-12-07T06:35:52;99714.88;;;19.85;45.53
40075;BME280;26529;51.530;11.754;2022-12-07T06:38:17;99707.84;;;19.84;45.54
40075;BME280;26529;51.530;11.754;2022-12-07T06:40:43;99714.88;;;19.85;45.47
40075;BME280;26529;51.530;11.754;2022-12-07T06:43:09;99703.38;;;19.84;45.66
40075;BME280;26529;51.530;11.754;2022-12-07T06:45:34;99698.19;;;19.83;45.49
40075;BME280;26529;51.530;11.754;2022-12-07T06:48:00;99697.44;;;19.80;45.68
40075;BME280;26529;51.530;11.754;2022-12-07T06:50:26;99709.75;;;19.82;45.71
40075;BME280;26529;51.530;11.754;2022-12-07T06:52:52;99702.75;;;19.80;45.67
40075;BME280;26529;51.530;11.754;2022-12-07T06:55:17;99699.00;;;19.83;45.63
40075;BME280;26529;51.530;11.754;2022-12-07T06:57:43;99702.53;;;19.84;45.47
40075;BME280;26529;51.530;11.754;2022-12-07T07:00:09;99706.88;;;19.85;45.50
40075;BME280;26529;51.530;11.754;2022-12-07T07:02:35;99711.34;;;19.84;45.46
40075;BME280;26529;51.530;11.754;2022-12-07T07:05:01;99705.09;;;19.85;45.48
40075;BME280;26529;51.530;11.754;2022-12-07T07:07:27;99700.72;;;19.84;45.59
40075;BME280;26529;51.530;11.754;2022-12-07T07:09:52;99690.94;;;19.85;45.30
40075;BME280;26529;51.530;11.754;2022-12-07T07:12:18;99699.88;;;19.84;45.60
40075;BME280;26529;51.530;11.754;2022-12-07T07:14:43;99699.00;;;19.83;45.42
40075;BME280;26529;51.530;11.754;2022-12-07T07:17:09;99706.16;;;19.83;45.58
40075;BME280;26529;51.530;11.754;2022-12-07T07:19:34;99699.00;;;19.83;45.49
40075;BME280;26529;51.530;11.754;2022-12-07T07:22:01;99705.19;;;19.84;45.60
40075;BME280;26529;51.530;11.754;2022-12-07T07:24:26;99715.09;;;19.82;45.49
40075;BME280;26529;51.530;11.754;2022-12-07T07:26:52;99715.34;;;19.78;45.57
40075;BME280;26529;51.530;11.754;2022-12-07T07:29:17;99716.19;;;19.79;45.44
40075;BME280;26529;51.530;11.754;2022-12-07T07:31:43;99723.31;;;19.78;45.30
40075;BME280;26529;51.530;11.754;2022-12-07T07:34:08;99722.44;;;19.78;45.62
40075;BME280;26529;51.530;11.754;2022-12-07T07:36:34;99716.41;;;19.76;45.59
40075;BME280;26529;51.530;11.754;2022-12-07T07:38:59;99715.56;;;19.75;45.59
40075;BME280;26529;51.530;11.754;2022-12-07T07:41:25;99718.34;;;19.74;45.52
40075;BME280;26529;51.530;11.754;2022-12-07T07:43:50;99711.09;;;19.76;45.65
40075;BME280;26529;51.530;11.754;2022-12-07T07:46:16;99713.13;;;19.72;45.56
40075;BME280;26529;51.530;11.754;2022-12-07T07:48:42;99721.09;;;19.72;45.66
40075;BME280;26529;51.530;11.754;2022-12-07T07:51:08;99714.81;;;19.73;45.63
40075;BME280;26529;51.530;11.754;2022-12-07T07:53:34;99721.09;;;19.72;45.59
40075;BME280;26529;51.530;11.754;2022-12-07T07:55:59;99714.09;;;19.71;45.84
40075;BME280;26529;51.530;11.754;2022-12-07T07:58:25;99728.97;;;19.74;45.55
40075;BME280;26529;51.530;11.754;2022-12-07T08:00:51;99716.50;;;19.74;45.47
40075;BME280;26529;51.530;11.754;2022-12-07T08:03:16;99717.47;;;19.73;45.60
40075;BME280;26529;51.530;11.754;2022-12-07T08:05:42;99720.13;;;19.73;45.65
40075;BME280;26529;51.530;11.754;2022-12-07T08:08:07;99718.25;;;19.75;45.54
40075;BME280;26529;51.530;11.754;2022-12-07T08:10:33;99731.03;;;19.82;45.75
40075;BME280;26529;51.530;11.754;2022-12-07T08:13:00;99724.44;;;19.87;45.34
40075;BME280;26529;51.530;11.754;2022-12-07T08:15:43;99720.44;;;19.93;45.45
40075;BME280;26529;51.530;11.754;2022-12-07T08:18:09;99722.94;;;19.96;45.45
40075;BME280;26529;51.530;11.754;2022-12-07T08:20:36;99724.50;;;19.99;45.33
40075;BME280;26529;51.530;11.754;2022-12-07T08:23:01;99731.63;;;19.98;45.60
40075;BME280;26529;51.530;11.754;2022-12-07T08:25:28;99731.38;;;20.01;45.64
40075;BME280;26529;51.530;11.754;2022-12-07T08:27:54;99728.72;;;20.01;45.80
40075;BME280;26529;51.530;11.754;2022-12-07T08:30:20;99728.50;;;20.04;45.76
40075;BME280;26529;51.530;11.754;2022-12-07T08:32:46;99726.47;;;20.08;46.08
40075;BME280;26529;51.530;11.754;2022-12-07T08:35:13;99727.78;;;20.14;46.15
40075;BME280;26529;51.530;11.754;2022-12-07T08:37:39;99724.16;;;20.15;46.04
40075;BME280;26529;51.530;11.754;2022-12-07T08:40:06;99716.19;;;20.15;46.25
40075;BME280;26529;51.530;11.754;2022-12-07T08:42:32;99719.44;;;20.18;46.45
40075;BME280;26529;51.530;11.754;2022-12-07T08:45:11;99723.84;;;20.19;46.65
40075;BME280;26529;51.530;11.754;2022-12-07T08:47:40;99725.38;;;20.22;46.51
40075;BME280;26529;51.530;11.754;2022-12-07T08:50:07;99727.81;;;20.25;47.11
40075;BME280;26529;51.530;11.754;2022-12-07T08:52:35;99725.88;;;20.27;47.08
40075;BME280;26529;51.530;11.754;2022-12-07T08:55:03;99731.22;;;20.27;47.36
40075;BME280;26529;51.530;11.754;2022-12-07T08:57:32;99727.56;;;20.28;47.55
40075;BME280;26529;51.530;11.754;2022-12-07T08:59:59;99740.78;;;20.30;47.88
40075;BME280;26529;51.530;11.754;2022-12-07T09:02:24;99737.13;;;20.31;47.87
40075;BME280;26529;51.530;11.754;2022-12-07T09:04:50;99731.00;;;20.30;47.92
40075;BME280;26529;51.530;11.754;2022-12-07T09:07:16;99728.19;;;20.32;47.94
40075;BME280;26529;51.530;11.754;2022-12-07T09:09:41;99734.38;;;20.32;48.23
40075;BME280;26529;51.530;11.754;2022-12-07T09:12:07;99732.06;;;20.28;48.05
40075;BME280;26529;51.530;11.754;2022-12-07T09:14:33;99733.88;;;20.27;48.16
40075;BME280;26529;51.530;11.754;2022-12-07T09:17:09;99735.69;;;20.27;48.10
40075;BME280;26529;51.530;11.754;2022-12-07T09:19:36;99727.81;;;20.25;48.24
40075;BME280;26529;51.530;11.754;2022-12-07T09:22:02;99727.81;;;20.25;48.21
40075;BME280;26529;51.530;11.754;2022-12-07T09:24:30;99730.50;;;20.25;48.25
40075;BME280;26529;51.530;11.754;2022-12-07T09:26:57;99729.78;;;20.23;48.32
40075;BME280;26529;51.530;11.754;2022-12-07T09:29:23;99731.56;;;20.23;48.10
40075;BME280;26529;51.530;11.754;2022-12-07T09:31:48;99729.63;;;20.25;48.42
40075;BME280;26529;51.530;11.754;2022-12-07T09:34:14;99733.16;;;20.25;48.44
40075;BME280;26529;51.530;11.754;2022-12-07T09:36:39;99728.78;;;20.24;48.44
40075;BME280;26529;51.530;11.754;2022-12-07T09:39:05;99730.97;;;20.19;48.19
40075;BME280;26529;51.530;11.754;2022-12-07T09:41:32;99722.38;;;20.15;47.69
40075;BME280;26529;51.530;11.754;2022-12-07T09:44:04;99726.81;;;20.15;47.66
40075;BME280;26529;51.530;11.754;2022-12-07T09:46:34;99718.63;;;20.18;47.68
40075;BME280;26529;51.530;11.754;2022-12-07T09:49:01;99725.53;;;20.20;47.78
40075;BME280;26529;51.530;11.754;2022-12-07T09:51:26;99706.75;;;20.22;47.58
40075;BME280;26529;51.530;11.754;2022-12-07T09:53:54;99711.00;;;20.25;47.72
40075;BME280;26529;51.530;11.754;2022-12-07T09:56:22;99702.06;;;20.26;47.64
40075;BME280;26529;51.530;11.754;2022-12-07T09:58:48;99703.00;;;20.25;47.76
40075;BME280;26529;51.530;11.754;2022-12-07T10:01:17;99706.53;;;20.25;47.80
40075;BME280;26529;51.530;11.754;2022-12-07T10:06:15;99702.41;;;20.32;47.48
40075;BME280;26529;51.530;11.754;2022-12-07T10:08:41;99699.78;;;20.44;47.16
40075;BME280;26529;51.530;11.754;2022-12-07T10:11:09;99703.03;;;20.36;47.04
40075;BME280;26529;51.530;11.754;2022-12-07T10:13:37;99699.88;;;20.31;47.27
40075;BME280;26529;51.530;11.754;2022-12-07T10:16:03;99704.59;;;20.27;47.46
40075;BME280;26529;51.530;11.754;2022-12-07T10:18:39;99705.44;;;20.28;47.52
40075;BME280;26529;51.530;11.754;2022-12-07T10:21:20;99704.59;;;20.27;47.40
40075;BME280;26529;51.530;11.754;2022-12-07T10:24:08;99698.28;;;20.28;47.46
40075;BME280;26529;51.530;11.754;2022-12-07T10:29:18;99700.13;;;20.28;47.46
40075;BME280;26529;51.530;11.754;2022-12-07T10:31:52;99694.78;;;20.28;47.55
40075;BME280;26529;51.530;11.754;2022-12-07T10:34:27;99689.38;;;20.29;47.51
40075;BME280;26529;51.530;11.754;2022-12-07T10:37:11;99688.50;;;20.29;47.45
40075;BME280;26529;51.530;11.754;2022-12-07T10:39:48;99684.88;;;20.30;47.54
40075;BME280;26529;51.530;11.754;2022-12-07T10:42:28;99681.38;;;20.29;47.48
40075;BME280;26529;51.530;11.754;2022-12-07T10:50:41;99676.88;;;20.30;47.38
40075;BME280;26529;51.530;11.754;2022-12-07T11:01:41;99674.44;;;20.15;47.72
40075;BME280;26529;51.530;11.754;2022-12-07T11:04:21;99681.56;;;20.15;47.65
40075;BME280;26529;51.530;11.754;2022-12-07T11:07:00;99682.81;;;20.11;47.61
40075;BME280;26529;51.530;11.754;2022-12-07T11:09:49;99688.34;;;20.08;47.70
40075;BME280;26529;51.530;11.754;2022-12-07T11:18:03;99679.63;;;20.05;47.74
40075;BME280;26529;51.530;11.754;2022-12-07T11:20:39;99685.81;;;20.06;47.69
40075;BME280;26529;51.530;11.754;2022-12-07T11:23:27;99685.56;;;20.09;47.53
40075;BME280;26529;51.530;11.754;2022-12-07T11:32:07;99687.88;;;20.14;47.39
40075;BME280;26529;51.530;11.754;2022-12-07T11:37:33;99679.88;;;20.14;47.37
40075;BME280;26529;51.530;11.754;2022-12-07T11:42:52;99675.31;;;20.16;47.36
40075;BME280;26529;51.530;11.754;2022-12-07T11:45:28;99671.91;;;20.14;47.27
40075;BME280;26529;51.530;11.754;2022-12-07T11:48:20;99675.53;;;20.13;47.29
40075;BME280;26529;51.530;11.754;2022-12-07T11:50:51;99672.88;;;20.13;47.14
40075;BME280;26529;51.530;11.754;2022-12-07T11:53:29;99671.91;;;20.14;47.09
40075;BME280;26529;51.530;11.754;2022-12-07T12:03:47;99677.84;;;20.17;47.18
40075;BME280;26529;51.530;11.754;2022-12-07T12:06:14;99671.69;;;20.17;47.23
40075;BME280;26529;51.530;11.754;2022-12-07T12:09:17;99656.78;;;20.14;47.21
40075;BME280;26529;51.530;11.754;2022-12-07T12:17:01;99652.78;;;20.09;47.12
40075;BME280;26529;51.530;11.754;2022-12-07T12:19:42;99659.94;;;20.08;47.05
40075;BME280;26529;51.530;11.754;2022-12-07T12:22:20;99653.63;;;20.09;47.02
40075;BME280;26529;51.530;11.754;2022-12-07T12:24:51;99656.19;;;20.11;47.02
40075;BME280;26529;51.530;11.754;2022-12-07T12:27:24;99652.56;;;20.12;47.02
40075;BME280;26529;51.530;11.754;2022-12-07T12:29:54;99648.09;;;20.12;47.15
40075;BME280;26529;51.530;11.754;2022-12-07T12:32:23;99645.28;;;20.14;46.89
40075;BME280;26529;51.530;11.754;2022-12-07T12:35:02;99636.22;;;20.16;47.05
40075;BME280;26529;51.530;11.754;2022-12-07T12:42:51;99633.34;;;20.19;47.18
40075;BME280;26529;51.530;11.754;2022-12-07T12:52:58;99640.94;;;20.24;47.52
40075;BME280;26529;51.530;11.754;2022-12-07T13:00:44;99620.88;;;20.31;47.78
40075;BME280;26529;51.530;11.754;2022-12-07T13:03:30;99623.63;;;20.30;47.73
40075;BME280;26529;51.530;11.754;2022-12-07T13:06:20;99620.16;;;20.29;47.77
40075;BME280;26529;51.530;11.754;2022-12-07T13:08:59;99614.06;;;20.27;47.91
40075;BME280;26529;51.530;11.754;2022-12-07T13:11:31;99611.56;;;20.26;47.99
40075;BME280;26529;51.530;11.754;2022-12-07T13:17:01;99613.34;;;20.25;48.00
40075;BME280;26529;51.530;11.754;2022-12-07T13:28:14;99604.88;;;20.20;47.99
40075;BME280;26529;51.530;11.754;2022-12-07T13:30:58;99605.59;;;20.22;47.93
40075;BME280;26529;51.530;11.754;2022-12-07T13:33:27;99606.34;;;20.24;48.23
40075;BME280;26529;51.530;11.754;2022-12-07T13:35:55;99612.38;;;20.26;48.29
40075;BME280;26529;51.530;11.754;2022-12-07T13:38:31;99606.09;;;20.27;48.14
40075;BME280;26529;51.530;11.754;2022-12-07T13:41:01;99607.78;;;20.28;48.19
40075;BME280;26529;51.530;11.754;2022-12-07T13:43:27;99615.53;;;20.31;48.27
40075;BME280;26529;51.530;11.754;2022-12-07T13:45:57;99602.22;;;20.31;48.38
40075;BME280;26529;51.530;11.754;2022-12-07T13:48:42;99614.69;;;20.31;48.32
40075;BME280;26529;51.530;11.754;2022-12-07T13:51:19;99611.91;;;20.32;48.32
40075;BME280;26529;51.530;11.754;2022-12-07T13:53:55;99607.66;;;20.30;48.16
40075;BME280;26529;51.530;11.754;2022-12-07T13:56:22;99610.59;;;20.27;48.40
40075;BME280;26529;51.530;11.754;2022-12-07T13:58:51;99617.72;;;20.26;48.10
40075;BME280;26529;51.530;11.754;2022-12-07T14:01:16;99616.25;;;20.22;47.93
40075;BME280;26529;51.530;11.754;2022-12-07T14:03:43;99614.81;;;20.18;47.99
40075;BME280;26529;51.530;11.754;2022-12-07T14:06:29;99610.22;;;20.20;48.11
40075;BME280;26529;51.530;11.754;2022-12-07T14:09:20;99619.88;;;20.21;48.31
40075;BME280;26529;51.530;11.754;2022-12-07T14:11:48;99609.22;;;20.21;48.40
40075;BME280;26529;51.530;11.754;2022-12-07T14:14:21;99616.38;;;20.20;48.14
40075;BME280;26529;51.530;11.754;2022-12-07T14:19:49;99620.75;;;20.22;48.39
40075;BME280;26529;51.530;11.754;2022-12-07T14:24:45;99622.44;;;20.23;48.47
40075;BME280;26529;51.530;11.754;2022-12-07T14:27:21;99616.13;;;20.24;48.35
40075;BME280;26529;51.530;11.754;2022-12-07T14:29:47;99622.44;;;20.23;48.42
40075;BME280;26529;51.530;11.754;2022-12-07T14:32:20;99625.22;;;20.21;48.40
40075;BME280;26529;51.530;11.754;2022-12-07T14:35:23;99622.31;;;20.24;48.39
40075;BME280;26529;51.530;11.754;2022-12-07T14:37:49;99619.75;;;20.23;48.65
40075;BME280;26529;51.530;11.754;2022-12-07T14:40:20;99613.72;;;20.20;48.60
40075;BME280;26529;51.530;11.754;2022-12-07T14:42:47;99615.41;;;20.22;48.60
40075;BME280;26529;51.530;11.754;2022-12-07T14:45:18;99612.88;;;20.20;48.45
40075;BME280;26529;51.530;11.754;2022-12-07T14:47:44;99612.88;;;20.20;48.60
40075;BME280;26529;51.530;11.754;2022-12-07T14:50:16;99616.50;;;20.19;48.64
40075;BME280;26529;51.530;11.754;2022-12-07T14:52:43;99616.50;;;20.19;48.66
40075;BME280;26529;51.530;11.754;2022-12-07T14:55:29;99598.84;;;20.18;48.62
40075;BME280;26529;51.530;11.754;2022-12-07T14:57:55;99602.47;;;20.17;48.71